Date,TemperatureHighF,TemperatureAvgF,TemperatureLowF,DewpointHighF,DewpointAvgF,DewpointLowF,HumidityHigh,HumidityAvg,HumidityLow,PressureMaxIn,PressureMinIn,WindSpeedMaxMPH,WindSpeedAvgMPH,GustSpeedMaxMPH,PrecipitationSumIn
2013-3-1,68,68,68,67,67,67,99,99,99,29.55,29.40,0,0,1,0.00
2013-3-2,68,68,68,67,67,67,99,99,99,29.55,29.50,0,0,1,0.00
2013-3-3,68,68,68,67,67,67,99,99,99,29.51,29.44,0,0,1,0.00
2013-3-4,68,68,68,67,67,67,99,99,99,29.65,29.45,0,0,1,0.00
2013-3-5,68,68,68,67,67,67,99,99,99,29.90,29.65,0,0,1,0.00
2013-3-6,68,68,68,67,67,67,99,99,99,30.00,29.89,0,0,1,0.00
2013-3-7,68,68,68,67,67,67,99,99,99,29.99,29.91,0,0,1,0.00
2013-3-8,68,68,68,67,67,67,99,99,99,30.09,29.90,0,0,1,0.00
2013-3-9,68,68,68,67,67,67,99,99,99,30.14,30.05,0,0,1,0.00
2013-3-10,68,68,68,67,67,67,99,99,99,30.14,29.99,0,0,1,0.00
2013-3-11,68,24,0,67,67,67,99,36,99,30.03,29.85,0,0,1,0.00
2013-3-12,0,0,0,67,67,67,0,0,100,29.85,29.55,0,0,0,0.00
2013-3-13,0,0,0,67,67,67,0,0,100,29.64,29.55,0,0,0,0.00
2013-3-14,0,0,0,67,67,67,0,0,100,29.64,29.51,0,0,0,0.00
2013-3-15,0,0,0,67,67,67,0,0,100,29.64,29.38,0,0,0,0.00
2013-3-16,0,0,0,67,67,67,0,0,100,29.68,29.48,0,0,0,0.00
2013-3-17,0,0,0,67,67,67,0,0,100,30.08,29.67,0,0,0,0.00
2013-3-18,0,0,0,67,67,67,0,0,100,30.17,29.92,0,0,0,0.00
2013-3-19,0,0,0,67,67,67,0,0,100,29.93,29.52,0,0,0,0.00
2013-3-20,0,0,0,67,67,67,0,0,100,29.52,29.44,0,0,0,0.00
2013-3-21,0,0,0,67,67,67,0,0,100,29.52,29.42,0,0,0,0.00
2013-3-22,0,0,0,67,67,67,0,0,100,29.52,29.43,0,0,0,0.00
2013-3-23,0,0,0,67,67,67,0,0,100,29.58,29.42,0,0,0,0.00
2013-3-24,0,0,0,67,67,67,0,0,100,29.66,29.57,0,0,0,0.00
2013-3-25,0,0,0,67,67,67,0,0,100,29.63,29.41,0,0,0,0.00
2013-3-26,0,0,0,67,67,67,0,0,100,29.62,29.44,0,0,0,0.00
2013-3-27,0,0,0,67,67,67,0,0,100,29.74,29.59,0,0,0,0.00
2013-3-28,0,0,0,67,67,67,0,0,100,29.87,29.73,0,0,0,0.00
2013-3-29,0,0,0,67,67,67,0,0,100,29.89,29.82,0,0,0,0.00
2013-3-30,0,0,0,67,67,67,0,0,100,29.92,29.86,0,0,0,0.00
2013-3-31,0,0,0,67,67,67,0,0,100,29.91,29.59,0,0,0,0.00